sensor_id;sensor_type;location;lat;lon;timestamp;temperature;humidity
24087;DHT22;22893;50.572;7.234;2023-04-21T00:01:01;21.70;52.80
24087;DHT22;22893;50.572;7.234;2023-04-21T00:03:29;21.70;52.80
24087;DHT22;22893;50.572;7.234;2023-04-21T00:05:58;21.70;52.80
24087;DHT22;22893;50.572;7.234;2023-04-21T00:08:27;21.70;52.70
24087;DHT22;22893;50.572;7.234;2023-04-21T00:10:54;21.70;52.70
24087;DHT22;22893;50.572;7.234;2023-04-21T00:13:22;21.70;52.70
24087;DHT22;22893;50.572;7.234;2023-04-21T00:15:50;21.70;52.70
24087;DHT22;22893;50.572;7.234;2023-04-21T00:18:17;21.70;52.70
24087;DHT22;22893;50.572;7.234;2023-04-21T00:20:45;21.70;52.70
24087;DHT22;22893;50.572;7.234;2023-04-21T00:23:12;21.70;52.70
24087;DHT22;22893;50.572;7.234;2023-04-21T00:25:40;21.70;52.70
24087;DHT22;22893;50.572;7.234;2023-04-21T00:28:07;21.70;52.80
24087;DHT22;22893;50.572;7.234;2023-04-21T00:30:35;21.70;52.70
24087;DHT22;22893;50.572;7.234;2023-04-21T00:33:03;21.70;52.70
24087;DHT22;22893;50.572;7.234;2023-04-21T00:35:30;21.70;52.70
24087;DHT22;22893;50.572;7.234;2023-04-21T00:37:58;21.70;52.70
24087;DHT22;22893;50.572;7.234;2023-04-21T00:40:26;21.70;52.70
24087;DHT22;22893;50.572;7.234;2023-04-21T00:42:54;21.60;52.60
24087;DHT22;22893;50.572;7.234;2023-04-21T00:45:21;21.70;52.70
24087;DHT22;22893;50.572;7.234;2023-04-21T00:47:49;21.70;52.70
24087;DHT22;22893;50.572;7.234;2023-04-21T00:50:17;21.60;52.70
24087;DHT22;22893;50.572;7.234;2023-04-21T00:52:45;21.60;52.70
24087;DHT22;22893;50.572;7.234;2023-04-21T00:55:14;21.60;52.60
24087;DHT22;22893;50.572;7.234;2023-04-21T00:57:42;21.60;52.60
24087;DHT22;22893;50.572;7.234;2023-04-21T01:00:11;21.60;52.90
24087;DHT22;22893;50.572;7.234;2023-04-21T01:02:40;21.60;52.70
24087;DHT22;22893;50.572;7.234;2023-04-21T01:05:08;21.60;53.20
24087;DHT22;22893;50.572;7.234;2023-04-21T01:07:38;21.60;52.60
24087;DHT22;22893;50.572;7.234;2023-04-21T01:10:07;21.60;52.70
24087;DHT22;22893;50.572;7.234;2023-04-21T01:12:45;21.60;52.70
24087;DHT22;22893;50.572;7.234;2023-04-21T01:15:15;21.60;52.70
24087;DHT22;22893;50.572;7.234;2023-04-21T01:17:43;21.60;52.70
24087;DHT22;22893;50.572;7.234;2023-04-21T01:20:12;21.60;52.70
24087;DHT22;22893;50.572;7.234;2023-04-21T01:22:41;21.60;52.60
24087;DHT22;22893;50.572;7.234;2023-04-21T01:25:10;21.60;52.60
24087;DHT22;22893;50.572;7.234;2023-04-21T01:27:38;21.60;52.60
24087;DHT22;22893;50.572;7.234;2023-04-21T01:30:07;21.60;52.70
24087;DHT22;22893;50.572;7.234;2023-04-21T01:32:35;21.60;52.70
24087;DHT22;22893;50.572;7.234;2023-04-21T01:35:03;21.50;52.70
24087;DHT22;22893;50.572;7.234;2023-04-21T01:37:32;21.50;52.60
24087;DHT22;22893;50.572;7.234;2023-04-21T01:40:03;21.50;52.60
24087;DHT22;22893;50.572;7.234;2023-04-21T01:42:31;21.50;52.70
24087;DHT22;22893;50.572;7.234;2023-04-21T01:45:02;21.50;52.70
24087;DHT22;22893;50.572;7.234;2023-04-21T01:47:30;21.50;52.70
24087;DHT22;22893;50.572;7.234;2023-04-21T01:49:58;21.60;52.70
24087;DHT22;22893;50.572;7.234;2023-04-21T01:52:25;21.50;52.70
24087;DHT22;22893;50.572;7.234;2023-04-21T01:54:54;21.50;52.70
24087;DHT22;22893;50.572;7.234;2023-04-21T01:57:21;21.50;52.70
24087;DHT22;22893;50.572;7.234;2023-04-21T01:59:49;21.50;52.80
24087;DHT22;22893;50.572;7.234;2023-04-21T02:02:16;21.50;52.70
24087;DHT22;22893;50.572;7.234;2023-04-21T02:04:44;21.50;52.70
24087;DHT22;22893;50.572;7.234;2023-04-21T02:07:12;21.50;52.70
24087;DHT22;22893;50.572;7.234;2023-04-21T02:09:39;21.50;52.70
24087;DHT22;22893;50.572;7.234;2023-04-21T02:12:07;21.50;52.70
24087;DHT22;22893;50.572;7.234;2023-04-21T02:14:36;21.50;52.70
24087;DHT22;22893;50.572;7.234;2023-04-21T02:17:05;21.50;52.80
24087;DHT22;22893;50.572;7.234;2023-04-21T02:19:33;21.50;53.40
24087;DHT22;22893;50.572;7.234;2023-04-21T02:22:00;21.50;52.70
24087;DHT22;22893;50.572;7.234;2023-04-21T02:24:28;21.50;52.70
24087;DHT22;22893;50.572;7.234;2023-04-21T02:26:58;21.40;52.60
24087;DHT22;22893;50.572;7.234;2023-04-21T02:29:25;21.50;52.70
24087;DHT22;22893;50.572;7.234;2023-04-21T02:31:53;21.40;52.60
24087;DHT22;22893;50.572;7.234;2023-04-21T02:34:21;21.40;52.60
24087;DHT22;22893;50.572;7.234;2023-04-21T02:36:48;21.50;52.70
24087;DHT22;22893;50.572;7.234;2023-04-21T02:39:16;21.40;52.70
24087;DHT22;22893;50.572;7.234;2023-04-21T02:41:43;21.40;52.70
24087;DHT22;22893;50.572;7.234;2023-04-21T02:44:11;21.40;52.60
24087;DHT22;22893;50.572;7.234;2023-04-21T02:46:42;21.40;52.70
24087;DHT22;22893;50.572;7.234;2023-04-21T02:49:10;21.40;52.70
24087;DHT22;22893;50.572;7.234;2023-04-21T02:51:37;21.40;52.70
24087;DHT22;22893;50.572;7.234;2023-04-21T02:54:05;21.40;52.70
24087;DHT22;22893;50.572;7.234;2023-04-21T02:56:32;21.40;52.70
24087;DHT22;22893;50.572;7.234;2023-04-21T02:59:00;21.40;52.80
24087;DHT22;22893;50.572;7.234;2023-04-21T03:01:27;21.30;52.70
24087;DHT22;22893;50.572;7.234;2023-04-21T03:03:55;21.40;52.80
24087;DHT22;22893;50.572;7.234;2023-04-21T03:06:22;21.40;52.80
24087;DHT22;22893;50.572;7.234;2023-04-21T03:08:50;21.40;52.80
24087;DHT22;22893;50.572;7.234;2023-04-21T03:11:18;21.30;52.70
24087;DHT22;22893;50.572;7.234;2023-04-21T03:13:45;21.30;52.70
24087;DHT22;22893;50.572;7.234;2023-04-21T03:16:13;21.30;52.80
24087;DHT22;22893;50.572;7.234;2023-04-21T03:18:41;21.30;52.80
24087;DHT22;22893;50.572;7.234;2023-04-21T03:21:08;21.30;52.70
24087;DHT22;22893;50.572;7.234;2023-04-21T03:23:36;21.30;52.70
24087;DHT22;22893;50.572;7.234;2023-04-21T03:26:07;21.30;52.70
24087;DHT22;22893;50.572;7.234;2023-04-21T03:28:35;21.30;52.70
24087;DHT22;22893;50.572;7.234;2023-04-21T03:31:03;21.30;52.70
24087;DHT22;22893;50.572;7.234;2023-04-21T03:33:30;21.30;52.70
24087;DHT22;22893;50.572;7.234;2023-04-21T03:35:58;21.30;52.70
24087;DHT22;22893;50.572;7.234;2023-04-21T03:38:30;21.30;52.70
24087;DHT22;22893;50.572;7.234;2023-04-21T03:40:57;21.30;52.70
24087;DHT22;22893;50.572;7.234;2023-04-21T03:43:25;21.30;52.70
24087;DHT22;22893;50.572;7.234;2023-04-21T03:45:52;21.30;52.70
24087;DHT22;22893;50.572;7.234;2023-04-21T03:48:20;21.30;52.60
24087;DHT22;22893;50.572;7.234;2023-04-21T03:50:47;21.30;52.70
24087;DHT22;22893;50.572;7.234;2023-04-21T03:53:15;21.30;52.60
24087;DHT22;22893;50.572;7.234;2023-04-21T03:55:42;21.30;52.70
24087;DHT22;22893;50.572;7.234;2023-04-21T03:58:12;21.30;52.70
24087;DHT22;22893;50.572;7.234;2023-04-21T04:00:39;21.30;52.70
24087;DHT22;22893;50.572;7.234;2023-04-21T04:03:07;21.30;52.70
24087;DHT22;22893;50.572;7.234;2023-04-21T04:05:35;21.30;52.80
24087;DHT22;22893;50.572;7.234;2023-04-21T04:08:03;21.20;52.70
24087;DHT22;22893;50.572;7.234;2023-04-21T04:10:30;21.20;52.70
24087;DHT22;22893;50.572;7.234;2023-04-21T04:12:58;21.30;52.70
24087;DHT22;22893;50.572;7.234;2023-04-21T04:15:26;21.20;52.70
24087;DHT22;22893;50.572;7.234;2023-04-21T04:17:54;21.20;52.60
24087;DHT22;22893;50.572;7.234;2023-04-21T04:20:22;21.20;52.70
24087;DHT22;22893;50.572;7.234;2023-04-21T04:22:49;21.20;52.60
24087;DHT22;22893;50.572;7.234;2023-04-21T04:25:17;21.20;52.70
24087;DHT22;22893;50.572;7.234;2023-04-21T04:27:44;21.20;52.70
24087;DHT22;22893;50.572;7.234;2023-04-21T04:30:14;21.20;52.70
24087;DHT22;22893;50.572;7.234;2023-04-21T04:32:42;21.20;52.60
24087;DHT22;22893;50.572;7.234;2023-04-21T04:35:10;21.20;52.70
24087;DHT22;22893;50.572;7.234;2023-04-21T04:37:39;21.20;52.70
24087;DHT22;22893;50.572;7.234;2023-04-21T04:40:07;21.20;52.70
24087;DHT22;22893;50.572;7.234;2023-04-21T04:42:36;21.20;52.80
24087;DHT22;22893;50.572;7.234;2023-04-21T04:45:06;21.20;52.70
24087;DHT22;22893;50.572;7.234;2023-04-21T04:47:35;21.20;52.80
24087;DHT22;22893;50.572;7.234;2023-04-21T04:50:03;21.20;52.70
24087;DHT22;22893;50.572;7.234;2023-04-21T04:52:33;21.20;52.70
24087;DHT22;22893;50.572;7.234;2023-04-21T04:55:01;21.20;52.70
24087;DHT22;22893;50.572;7.234;2023-04-21T04:57:30;21.30;52.70
24087;DHT22;22893;50.572;7.234;2023-04-21T04:59:57;21.30;52.90
24087;DHT22;22893;50.572;7.234;2023-04-21T05:02:25;21.30;52.60
24087;DHT22;22893;50.572;7.234;2023-04-21T05:04:53;21.30;52.60
24087;DHT22;22893;50.572;7.234;2023-04-21T05:07:20;21.30;52.60
24087;DHT22;22893;50.572;7.234;2023-04-21T05:09:48;21.30;52.70
24087;DHT22;22893;50.572;7.234;2023-04-21T05:12:15;21.30;52.70
24087;DHT22;22893;50.572;7.234;2023-04-21T05:14:43;21.30;52.60
24087;DHT22;22893;50.572;7.234;2023-04-21T05:17:10;21.30;52.70
24087;DHT22;22893;50.572;7.234;2023-04-21T05:19:38;21.30;52.70
24087;DHT22;22893;50.572;7.234;2023-04-21T05:22:05;21.30;52.60
24087;DHT22;22893;50.572;7.234;2023-04-21T05:24:33;21.40;52.70
24087;DHT22;22893;50.572;7.234;2023-04-21T05:27:01;21.30;52.60
24087;DHT22;22893;50.572;7.234;2023-04-21T05:29:29;21.40;52.70
24087;DHT22;22893;50.572;7.234;2023-04-21T05:31:56;21.40;52.70
24087;DHT22;22893;50.572;7.234;2023-04-21T05:34:24;21.40;52.70
24087;DHT22;22893;50.572;7.234;2023-04-21T05:36:52;21.40;52.70
24087;DHT22;22893;50.572;7.234;2023-04-21T05:39:20;21.30;52.80
24087;DHT22;22893;50.572;7.234;2023-04-21T05:41:47;21.30;52.90
24087;DHT22;22893;50.572;7.234;2023-04-21T05:44:16;21.40;52.90
24087;DHT22;22893;50.572;7.234;2023-04-21T05:46:44;21.40;52.90
24087;DHT22;22893;50.572;7.234;2023-04-21T05:49:11;21.40;52.90
24087;DHT22;22893;50.572;7.234;2023-04-21T05:51:39;21.40;53.00
24087;DHT22;22893;50.572;7.234;2023-04-21T05:54:07;21.40;53.00
24087;DHT22;22893;50.572;7.234;2023-04-21T05:56:35;21.40;53.10
24087;DHT22;22893;50.572;7.234;2023-04-21T05:59:02;21.40;53.00
24087;DHT22;22893;50.572;7.234;2023-04-21T06:01:32;21.40;53.10
24087;DHT22;22893;50.572;7.234;2023-04-21T06:03:59;21.40;53.10
24087;DHT22;22893;50.572;7.234;2023-04-21T06:06:27;21.40;53.30
24087;DHT22;22893;50.572;7.234;2023-04-21T06:08:54;21.40;53.30
24087;DHT22;22893;50.572;7.234;2023-04-21T06:11:22;21.40;53.30
24087;DHT22;22893;50.572;7.234;2023-04-21T06:13:50;21.40;53.30
24087;DHT22;22893;50.572;7.234;2023-04-21T06:16:19;21.40;53.40
24087;DHT22;22893;50.572;7.234;2023-04-21T06:18:47;21.40;54.10
24087;DHT22;22893;50.572;7.234;2023-04-21T06:21:14;21.40;53.40
24087;DHT22;22893;50.572;7.234;2023-04-21T06:23:42;21.50;53.50
24087;DHT22;22893;50.572;7.234;2023-04-21T06:26:10;21.40;53.50
24087;DHT22;22893;50.572;7.234;2023-04-21T06:28:38;21.50;53.60
24087;DHT22;22893;50.572;7.234;2023-04-21T06:31:05;21.40;53.70
24087;DHT22;22893;50.572;7.234;2023-04-21T06:33:35;21.50;54.50
24087;DHT22;22893;50.572;7.234;2023-04-21T06:36:02;21.40;53.70
24087;DHT22;22893;50.572;7.234;2023-04-21T06:38:30;21.50;53.80
24087;DHT22;22893;50.572;7.234;2023-04-21T06:40:58;21.50;53.80
24087;DHT22;22893;50.572;7.234;2023-04-21T06:43:25;21.50;54.00
24087;DHT22;22893;50.572;7.234;2023-04-21T06:45:53;21.50;54.10
24087;DHT22;22893;50.572;7.234;2023-04-21T06:48:20;21.50;54.10
24087;DHT22;22893;50.572;7.234;2023-04-21T06:50:49;21.50;54.00
24087;DHT22;22893;50.572;7.234;2023-04-21T06:53:17;21.50;54.00
24087;DHT22;22893;50.572;7.234;2023-04-21T06:55:47;21.50;54.10
24087;DHT22;22893;50.572;7.234;2023-04-21T06:58:14;21.50;54.00
24087;DHT22;22893;50.572;7.234;2023-04-21T07:00:42;21.50;54.10
24087;DHT22;22893;50.572;7.234;2023-04-21T07:03:10;21.50;54.10
24087;DHT22;22893;50.572;7.234;2023-04-21T07:05:38;21.50;54.80
24087;DHT22;22893;50.572;7.234;2023-04-21T07:08:05;21.50;54.10
24087;DHT22;22893;50.572;7.234;2023-04-21T07:10:33;21.50;54.20
24087;DHT22;22893;50.572;7.234;2023-04-21T07:13:00;21.50;54.20
24087;DHT22;22893;50.572;7.234;2023-04-21T07:15:28;21.50;54.30
24087;DHT22;22893;50.572;7.234;2023-04-21T07:17:56;21.50;54.30
24087;DHT22;22893;50.572;7.234;2023-04-21T07:20:24;21.60;54.30
24087;DHT22;22893;50.572;7.234;2023-04-21T07:22:52;21.50;54.20
24087;DHT22;22893;50.572;7.234;2023-04-21T07:25:19;21.60;54.50
24087;DHT22;22893;50.572;7.234;2023-04-21T07:27:47;21.50;54.80
24087;DHT22;22893;50.572;7.234;2023-04-21T07:30:14;21.60;54.80
24087;DHT22;22893;50.572;7.234;2023-04-21T07:32:42;21.50;54.90
24087;DHT22;22893;50.572;7.234;2023-04-21T07:35:09;21.50;54.80
24087;DHT22;22893;50.572;7.234;2023-04-21T07:37:37;21.60;54.80
24087;DHT22;22893;50.572;7.234;2023-04-21T07:40:07;21.60;55.00
24087;DHT22;22893;50.572;7.234;2023-04-21T07:42:37;21.60;54.90
24087;DHT22;22893;50.572;7.234;2023-04-21T07:45:05;21.60;54.80
24087;DHT22;22893;50.572;7.234;2023-04-21T07:47:33;21.60;54.90
24087;DHT22;22893;50.572;7.234;2023-04-21T07:50:01;21.60;54.90
24087;DHT22;22893;50.572;7.234;2023-04-21T07:52:28;21.60;54.90
24087;DHT22;22893;50.572;7.234;2023-04-21T07:54:56;21.60;55.10
24087;DHT22;22893;50.572;7.234;2023-04-21T07:57:24;21.60;55.10
24087;DHT22;22893;50.572;7.234;2023-04-21T07:59:51;21.60;55.30
24087;DHT22;22893;50.572;7.234;2023-04-21T08:02:19;21.60;55.10
24087;DHT22;22893;50.572;7.234;2023-04-21T08:04:46;21.70;55.20
24087;DHT22;22893;50.572;7.234;2023-04-21T08:07:14;21.70;55.40
24087;DHT22;22893;50.572;7.234;2023-04-21T08:09:41;21.60;55.10
24087;DHT22;22893;50.572;7.234;2023-04-21T08:12:09;21.70;55.30
24087;DHT22;22893;50.572;7.234;2023-04-21T08:14:36;21.70;55.40
24087;DHT22;22893;50.572;7.234;2023-04-21T08:17:04;21.60;55.10
24087;DHT22;22893;50.572;7.234;2023-04-21T08:19:32;21.70;55.30
24087;DHT22;22893;50.572;7.234;2023-04-21T08:21:59;21.70;55.20
24087;DHT22;22893;50.572;7.234;2023-04-21T08:24:27;21.70;55.30
24087;DHT22;22893;50.572;7.234;2023-04-21T08:26:54;21.70;55.20
24087;DHT22;22893;50.572;7.234;2023-04-21T08:29:23;21.70;55.20
24087;DHT22;22893;50.572;7.234;2023-04-21T08:31:50;21.70;55.20
24087;DHT22;22893;50.572;7.234;2023-04-21T08:34:18;21.70;55.30
24087;DHT22;22893;50.572;7.234;2023-04-21T08:36:45;21.70;55.40
24087;DHT22;22893;50.572;7.234;2023-04-21T08:39:14;21.70;55.70
24087;DHT22;22893;50.572;7.234;2023-04-21T08:41:42;21.70;56.40
24087;DHT22;22893;50.572;7.234;2023-04-21T08:44:09;21.70;55.80
24087;DHT22;22893;50.572;7.234;2023-04-21T08:46:38;21.70;55.40
24087;DHT22;22893;50.572;7.234;2023-04-21T08:49:08;21.70;56.10
24087;DHT22;22893;50.572;7.234;2023-04-21T08:51:36;21.70;55.50
24087;DHT22;22893;50.572;7.234;2023-04-21T08:54:03;21.70;55.90
24087;DHT22;22893;50.572;7.234;2023-04-21T08:56:32;21.70;56.30
24087;DHT22;22893;50.572;7.234;2023-04-21T08:58:59;21.80;56.30
24087;DHT22;22893;50.572;7.234;2023-04-21T09:01:27;21.70;55.90
24087;DHT22;22893;50.572;7.234;2023-04-21T09:04:14;21.70;56.10
24087;DHT22;22893;50.572;7.234;2023-04-21T09:06:40;21.70;55.80
24087;DHT22;22893;50.572;7.234;2023-04-21T09:09:11;21.70;55.80
24087;DHT22;22893;50.572;7.234;2023-04-21T09:11:39;21.70;55.80
24087;DHT22;22893;50.572;7.234;2023-04-21T09:14:06;21.80;56.10
24087;DHT22;22893;50.572;7.234;2023-04-21T09:16:35;21.80;56.40
24087;DHT22;22893;50.572;7.234;2023-04-21T09:19:12;21.80;56.50
24087;DHT22;22893;50.572;7.234;2023-04-21T09:21:34;21.80;56.30
24087;DHT22;22893;50.572;7.234;2023-04-21T09:24:03;21.80;56.40
24087;DHT22;22893;50.572;7.234;2023-04-21T09:26:34;21.80;56.50
24087;DHT22;22893;50.572;7.234;2023-04-21T09:29:04;21.80;56.60
24087;DHT22;22893;50.572;7.234;2023-04-21T09:31:34;21.80;56.80
24087;DHT22;22893;50.572;7.234;2023-04-21T09:34:02;21.80;56.30
24087;DHT22;22893;50.572;7.234;2023-04-21T09:36:31;21.80;56.50
24087;DHT22;22893;50.572;7.234;2023-04-21T09:39:03;21.80;56.10
24087;DHT22;22893;50.572;7.234;2023-04-21T09:41:31;21.80;55.90
24087;DHT22;22893;50.572;7.234;2023-04-21T09:43:59;21.80;56.10
24087;DHT22;22893;50.572;7.234;2023-04-21T09:46:28;21.80;56.10
24087;DHT22;22893;50.572;7.234;2023-04-21T09:48:59;21.80;56.50
24087;DHT22;22893;50.572;7.234;2023-04-21T09:51:29;21.80;56.00
24087;DHT22;22893;50.572;7.234;2023-04-21T09:54:03;21.80;56.60
24087;DHT22;22893;50.572;7.234;2023-04-21T09:56:32;21.80;56.40
24087;DHT22;22893;50.572;7.234;2023-04-21T09:59:00;21.80;56.60
24087;DHT22;22893;50.572;7.234;2023-04-21T10:01:30;21.80;56.50
24087;DHT22;22893;50.572;7.234;2023-04-21T10:04:01;21.90;56.50
24087;DHT22;22893;50.572;7.234;2023-04-21T10:06:29;21.90;56.50
24087;DHT22;22893;50.572;7.234;2023-04-21T10:08:58;21.90;56.40
24087;DHT22;22893;50.572;7.234;2023-04-21T10:11:26;21.90;56.90
24087;DHT22;22893;50.572;7.234;2023-04-21T10:13:54;21.90;57.20
24087;DHT22;22893;50.572;7.234;2023-04-21T10:16:22;21.90;56.40
24087;DHT22;22893;50.572;7.234;2023-04-21T10:18:49;21.90;56.40
24087;DHT22;22893;50.572;7.234;2023-04-21T10:21:20;21.90;56.70
24087;DHT22;22893;50.572;7.234;2023-04-21T10:23:50;21.90;56.70
24087;DHT22;22893;50.572;7.234;2023-04-21T10:26:31;21.90;56.50
24087;DHT22;22893;50.572;7.234;2023-04-21T10:29:07;21.90;56.50
24087;DHT22;22893;50.572;7.234;2023-04-21T10:31:53;21.90;56.40
24087;DHT22;22893;50.572;7.234;2023-04-21T10:39:30;21.90;56.60
24087;DHT22;22893;50.572;7.234;2023-04-21T10:42:19;21.90;56.30
24087;DHT22;22893;50.572;7.234;2023-04-21T10:45:00;21.90;56.20
24087;DHT22;22893;50.572;7.234;2023-04-21T10:47:46;21.90;56.40
24087;DHT22;22893;50.572;7.234;2023-04-21T10:50:18;21.90;56.60
24087;DHT22;22893;50.572;7.234;2023-04-21T10:52:54;21.90;56.60
24087;DHT22;22893;50.572;7.234;2023-04-21T10:55:24;21.90;56.50
24087;DHT22;22893;50.572;7.234;2023-04-21T10:57:51;21.90;56.50
24087;DHT22;22893;50.572;7.234;2023-04-21T11:00:21;21.90;56.60
24087;DHT22;22893;50.572;7.234;2023-04-21T11:03:01;21.90;56.50
24087;DHT22;22893;50.572;7.234;2023-04-21T11:05:36;21.90;56.60
24087;DHT22;22893;50.572;7.234;2023-04-21T11:08:12;21.90;56.80
24087;DHT22;22893;50.572;7.234;2023-04-21T11:10:53;22.00;56.40
24087;DHT22;22893;50.572;7.234;2023-04-21T11:13:26;21.90;56.30
24087;DHT22;22893;50.572;7.234;2023-04-21T11:16:01;22.00;56.70
24087;DHT22;22893;50.572;7.234;2023-04-21T11:18:36;22.00;56.40
24087;DHT22;22893;50.572;7.234;2023-04-21T11:21:09;21.90;56.20
24087;DHT22;22893;50.572;7.234;2023-04-21T11:23:40;22.00;56.20
24087;DHT22;22893;50.572;7.234;2023-04-21T11:26:08;22.00;56.20
24087;DHT22;22893;50.572;7.234;2023-04-21T11:28:35;22.00;56.30
24087;DHT22;22893;50.572;7.234;2023-04-21T11:31:03;22.00;56.40
24087;DHT22;22893;50.572;7.234;2023-04-21T11:33:36;22.00;56.30
24087;DHT22;22893;50.572;7.234;2023-04-21T11:36:07;22.00;56.20
24087;DHT22;22893;50.572;7.234;2023-04-21T11:38:39;22.00;56.30
24087;DHT22;22893;50.572;7.234;2023-04-21T11:41:08;22.00;56.20
24087;DHT22;22893;50.572;7.234;2023-04-21T11:43:36;22.00;56.20
24087;DHT22;22893;50.572;7.234;2023-04-21T11:46:15;22.00;56.20
24087;DHT22;22893;50.572;7.234;2023-04-21T11:48:45;22.00;56.20
24087;DHT22;22893;50.572;7.234;2023-04-21T11:51:18;22.00;56.30
24087;DHT22;22893;50.572;7.234;2023-04-21T11:53:46;22.00;56.20
24087;DHT22;22893;50.572;7.234;2023-04-21T11:56:21;22.00;56.50
24087;DHT22;22893;50.572;7.234;2023-04-21T11:58:50;22.00;56.50
24087;DHT22;22893;50.572;7.234;2023-04-21T12:01:19;22.00;56.20
24087;DHT22;22893;50.572;7.234;2023-04-21T12:03:54;22.00;56.30
24087;DHT22;22893;50.572;7.234;2023-04-21T12:06:25;22.00;56.20
24087;DHT22;22893;50.572;7.234;2023-04-21T12:09:01;22.00;56.20
24087;DHT22;22893;50.572;7.234;2023-04-21T12:11:30;22.00;56.20
24087;DHT22;22893;50.572;7.234;2023-04-21T12:13:58;22.00;56.30
24087;DHT22;22893;50.572;7.234;2023-04-21T12:16:27;22.00;56.30
24087;DHT22;22893;50.572;7.234;2023-04-21T12:18:56;22.10;56.30
24087;DHT22;22893;50.572;7.234;2023-04-21T12:21:29;22.00;56.40
24087;DHT22;22893;50.572;7.234;2023-04-21T12:23:57;22.10;56.20
24087;DHT22;22893;50.572;7.234;2023-04-21T12:26:24;22.10;56.30
24087;DHT22;22893;50.572;7.234;2023-04-21T12:28:53;22.10;56.30
24087;DHT22;22893;50.572;7.234;2023-04-21T12:31:20;22.10;56.20
24087;DHT22;22893;50.572;7.234;2023-04-21T12:33:48;22.10;56.40
24087;DHT22;22893;50.572;7.234;2023-04-21T12:36:16;22.10;56.10
24087;DHT22;22893;50.572;7.234;2023-04-21T12:38:43;22.10;56.10
24087;DHT22;22893;50.572;7.234;2023-04-21T12:41:11;22.10;56.20
24087;DHT22;22893;50.572;7.234;2023-04-21T12:43:39;22.10;56.10
24087;DHT22;22893;50.572;7.234;2023-04-21T12:46:06;22.10;56.10
24087;DHT22;22893;50.572;7.234;2023-04-21T12:48:34;22.10;56.30
24087;DHT22;22893;50.572;7.234;2023-04-21T12:51:02;22.10;56.10
24087;DHT22;22893;50.572;7.234;2023-04-21T12:53:30;22.10;56.10
24087;DHT22;22893;50.572;7.234;2023-04-21T12:55:57;22.10;56.00
24087;DHT22;22893;50.572;7.234;2023-04-21T12:58:25;22.10;56.10
24087;DHT22;22893;50.572;7.234;2023-04-21T13:00:53;22.10;56.10
24087;DHT22;22893;50.572;7.234;2023-04-21T13:03:21;22.10;56.10
24087;DHT22;22893;50.572;7.234;2023-04-21T13:05:48;22.10;56.10
24087;DHT22;22893;50.572;7.234;2023-04-21T13:08:16;22.20;56.20
24087;DHT22;22893;50.572;7.234;2023-04-21T13:10:44;22.20;56.30
24087;DHT22;22893;50.572;7.234;2023-04-21T13:13:11;22.20;56.20
24087;DHT22;22893;50.572;7.234;2023-04-21T13:15:39;22.20;56.30
24087;DHT22;22893;50.572;7.234;2023-04-21T13:18:07;22.20;56.20
24087;DHT22;22893;50.572;7.234;2023-04-21T13:20:34;22.20;56.20
24087;DHT22;22893;50.572;7.234;2023-04-21T13:23:02;22.20;56.30
24087;DHT22;22893;50.572;7.234;2023-04-21T13:25:30;22.20;56.30
24087;DHT22;22893;50.572;7.234;2023-04-21T13:27:58;22.20;56.30
24087;DHT22;22893;50.572;7.234;2023-04-21T13:30:26;22.20;56.40
24087;DHT22;22893;50.572;7.234;2023-04-21T13:32:53;22.20;56.30
24087;DHT22;22893;50.572;7.234;2023-04-21T13:35:21;22.20;56.20
24087;DHT22;22893;50.572;7.234;2023-04-21T13:37:49;22.30;56.20
24087;DHT22;22893;50.572;7.234;2023-04-21T13:40:16;22.20;56.20
24087;DHT22;22893;50.572;7.234;2023-04-21T13:42:44;22.20;56.10
24087;DHT22;22893;50.572;7.234;2023-04-21T13:45:12;22.20;56.10
24087;DHT22;22893;50.572;7.234;2023-04-21T13:47:39;22.20;56.30
24087;DHT22;22893;50.572;7.234;2023-04-21T13:50:07;22.30;56.20
24087;DHT22;22893;50.572;7.234;2023-04-21T13:52:35;22.30;56.10
24087;DHT22;22893;50.572;7.234;2023-04-21T13:55:03;22.30;56.90
24087;DHT22;22893;50.572;7.234;2023-04-21T13:57:31;22.30;56.10
24087;DHT22;22893;50.572;7.234;2023-04-21T13:59:59;22.30;56.10
24087;DHT22;22893;50.572;7.234;2023-04-21T14:02:26;22.30;56.20
24087;DHT22;22893;50.572;7.234;2023-04-21T14:04:54;22.30;56.10
24087;DHT22;22893;50.572;7.234;2023-04-21T14:07:22;22.30;56.10
24087;DHT22;22893;50.572;7.234;2023-04-21T14:09:50;22.30;56.20
24087;DHT22;22893;50.572;7.234;2023-04-21T14:12:18;22.30;56.20
24087;DHT22;22893;50.572;7.234;2023-04-21T14:14:45;22.30;56.10
24087;DHT22;22893;50.572;7.234;2023-04-21T14:17:13;22.40;56.20
24087;DHT22;22893;50.572;7.234;2023-04-21T14:19:42;22.30;56.20
24087;DHT22;22893;50.572;7.234;2023-04-21T14:22:10;22.40;56.20
24087;DHT22;22893;50.572;7.234;2023-04-21T14:24:37;22.40;56.10
24087;DHT22;22893;50.572;7.234;2023-04-21T14:27:05;22.40;56.20
24087;DHT22;22893;50.572;7.234;2023-04-21T14:29:32;22.40;56.20
24087;DHT22;22893;50.572;7.234;2023-04-21T14:32:00;22.40;56.30
24087;DHT22;22893;50.572;7.234;2023-04-21T14:34:27;22.40;56.40
24087;DHT22;22893;50.572;7.234;2023-04-21T14:36:55;22.30;56.50
24087;DHT22;22893;50.572;7.234;2023-04-21T14:39:23;22.40;56.50
24087;DHT22;22893;50.572;7.234;2023-04-21T14:41:51;22.40;56.70
24087;DHT22;22893;50.572;7.234;2023-04-21T14:44:18;22.40;56.60
24087;DHT22;22893;50.572;7.234;2023-04-21T14:46:46;22.40;56.60
24087;DHT22;22893;50.572;7.234;2023-04-21T14:49:14;22.40;56.60
24087;DHT22;22893;50.572;7.234;2023-04-21T14:51:42;22.40;56.60
24087;DHT22;22893;50.572;7.234;2023-04-21T14:54:11;22.40;56.70
24087;DHT22;22893;50.572;7.234;2023-04-21T14:56:38;22.40;56.90
24087;DHT22;22893;50.572;7.234;2023-04-21T14:59:06;22.40;57.00
24087;DHT22;22893;50.572;7.234;2023-04-21T15:01:35;22.40;56.90
24087;DHT22;22893;50.572;7.234;2023-04-21T15:04:03;22.40;57.00
24087;DHT22;22893;50.572;7.234;2023-04-21T15:06:31;22.50;57.10
24087;DHT22;22893;50.572;7.234;2023-04-21T15:08:59;22.40;57.10
24087;DHT22;22893;50.572;7.234;2023-04-21T15:11:29;22.50;57.20
24087;DHT22;22893;50.572;7.234;2023-04-21T15:13:57;22.40;57.10
24087;DHT22;22893;50.572;7.234;2023-04-21T15:16:25;22.50;57.10
24087;DHT22;22893;50.572;7.234;2023-04-21T15:18:52;22.50;57.00
24087;DHT22;22893;50.572;7.234;2023-04-21T15:21:20;22.50;57.00
24087;DHT22;22893;50.572;7.234;2023-04-21T15:23:48;22.50;57.00
24087;DHT22;22893;50.572;7.234;2023-04-21T15:26:16;22.50;56.90
24087;DHT22;22893;50.572;7.234;2023-04-21T15:28:44;22.50;56.80
24087;DHT22;22893;50.572;7.234;2023-04-21T15:31:11;22.50;56.80
24087;DHT22;22893;50.572;7.234;2023-04-21T15:33:39;22.50;56.80
24087;DHT22;22893;50.572;7.234;2023-04-21T15:36:07;22.50;56.90
24087;DHT22;22893;50.572;7.234;2023-04-21T15:38:34;22.50;56.80
24087;DHT22;22893;50.572;7.234;2023-04-21T15:41:02;22.60;56.80
24087;DHT22;22893;50.572;7.234;2023-04-21T15:43:29;22.60;56.70